Terminal Aerodrome Forecast
Issued by NWS

Home | Current Version | Previous Version | Text Only | Print | Product List | Glossary On
Versions: 1 2 3 4 5 6 7 8 9 10 11 12 13
000
FTUS45 KREV 311100
TAFMMH
TAF
KMMH 311120Z 3112/0112 VRB03KT P6SM SKC
     FM311900 26010KT P6SM SKC
     FM010100 30005KT P6SM SKC
      AMD NOT SKED TIL 311400=

USA.gov is the U.S. government's official web portal to all federal, state and local government web resources and services.